sensor_id;sensor_type;location;lat;lon;timestamp;P1;durP1;ratioP1;P2;durP2;ratioP2
23129;SDS011;11734;51.046;13.778;2022-10-16T00:01:35;15.90;;;12.50;;
23129;SDS011;11734;51.046;13.778;2022-10-16T00:03:56;15.63;;;12.43;;
23129;SDS011;11734;51.046;13.778;2022-10-16T00:06:26;15.67;;;12.70;;
23129;SDS011;11734;51.046;13.778;2022-10-16T00:08:54;15.87;;;12.27;;
23129;SDS011;11734;51.046;13.778;2022-10-16T00:11:29;16.10;;;12.07;;
23129;SDS011;11734;51.046;13.778;2022-10-16T00:14:03;14.17;;;12.10;;
23129;SDS011;11734;51.046;13.778;2022-10-16T00:16:36;17.07;;;12.90;;
23129;SDS011;11734;51.046;13.778;2022-10-16T00:19:04;16.23;;;12.40;;
23129;SDS011;11734;51.046;13.778;2022-10-16T00:21:31;15.07;;;11.53;;
23129;SDS011;11734;51.046;13.778;2022-10-16T00:24:00;14.63;;;11.90;;
23129;SDS011;11734;51.046;13.778;2022-10-16T00:26:32;14.33;;;11.63;;
23129;SDS011;11734;51.046;13.778;2022-10-16T00:29:01;14.60;;;12.10;;
23129;SDS011;11734;51.046;13.778;2022-10-16T00:31:29;15.63;;;11.83;;
23129;SDS011;11734;51.046;13.778;2022-10-16T00:33:57;13.23;;;11.00;;
23129;SDS011;11734;51.046;13.778;2022-10-16T00:36:24;13.03;;;11.23;;
23129;SDS011;11734;51.046;13.778;2022-10-16T00:38:53;14.83;;;11.50;;
23129;SDS011;11734;51.046;13.778;2022-10-16T00:41:24;14.80;;;11.23;;
23129;SDS011;11734;51.046;13.778;2022-10-16T00:43:52;17.23;;;12.00;;
23129;SDS011;11734;51.046;13.778;2022-10-16T00:46:28;13.13;;;11.13;;
23129;SDS011;11734;51.046;13.778;2022-10-16T00:51:40;13.47;;;11.10;;
23129;SDS011;11734;51.046;13.778;2022-10-16T00:54:21;13.70;;;10.97;;
23129;SDS011;11734;51.046;13.778;2022-10-16T00:56:52;14.03;;;11.63;;
23129;SDS011;11734;51.046;13.778;2022-10-16T00:59:28;13.60;;;10.90;;
23129;SDS011;11734;51.046;13.778;2022-10-16T01:02:00;14.03;;;11.70;;
23129;SDS011;11734;51.046;13.778;2022-10-16T01:04:31;13.83;;;11.30;;
23129;SDS011;11734;51.046;13.778;2022-10-16T01:12:51;13.13;;;10.53;;
23129;SDS011;11734;51.046;13.778;2022-10-16T01:16:00;13.57;;;11.27;;
23129;SDS011;11734;51.046;13.778;2022-10-16T01:18:43;14.33;;;11.17;;
23129;SDS011;11734;51.046;13.778;2022-10-16T01:21:27;14.17;;;11.33;;
23129;SDS011;11734;51.046;13.778;2022-10-16T01:24:12;14.47;;;11.10;;
23129;SDS011;11734;51.046;13.778;2022-10-16T01:27:08;14.23;;;11.40;;
23129;SDS011;11734;51.046;13.778;2022-10-16T01:29:39;13.57;;;11.13;;
23129;SDS011;11734;51.046;13.778;2022-10-16T01:32:31;13.20;;;10.73;;
23129;SDS011;11734;51.046;13.778;2022-10-16T01:35:41;13.00;;;11.30;;
23129;SDS011;11734;51.046;13.778;2022-10-16T01:41:00;13.27;;;11.03;;
23129;SDS011;11734;51.046;13.778;2022-10-16T01:43:58;12.13;;;10.43;;
23129;SDS011;11734;51.046;13.778;2022-10-16T01:46:35;14.43;;;11.63;;
23129;SDS011;11734;51.046;13.778;2022-10-16T01:49:06;12.17;;;10.60;;
23129;SDS011;11734;51.046;13.778;2022-10-16T01:51:37;12.37;;;11.03;;
23129;SDS011;11734;51.046;13.778;2022-10-16T01:54:06;15.00;;;11.97;;
23129;SDS011;11734;51.046;13.778;2022-10-16T01:56:36;14.13;;;11.23;;
23129;SDS011;11734;51.046;13.778;2022-10-16T01:59:06;14.03;;;11.60;;
23129;SDS011;11734;51.046;13.778;2022-10-16T02:01:40;13.93;;;11.30;;
23129;SDS011;11734;51.046;13.778;2022-10-16T02:04:17;13.57;;;11.47;;
23129;SDS011;11734;51.046;13.778;2022-10-16T02:06:52;14.27;;;11.23;;
23129;SDS011;11734;51.046;13.778;2022-10-16T02:09:20;14.80;;;11.97;;
23129;SDS011;11734;51.046;13.778;2022-10-16T02:11:47;14.67;;;12.00;;
23129;SDS011;11734;51.046;13.778;2022-10-16T02:14:20;15.30;;;12.37;;
23129;SDS011;11734;51.046;13.778;2022-10-16T02:16:50;14.53;;;11.63;;
23129;SDS011;11734;51.046;13.778;2022-10-16T02:19:17;15.43;;;12.20;;
23129;SDS011;11734;51.046;13.778;2022-10-16T02:21:57;17.37;;;13.00;;
23129;SDS011;11734;51.046;13.778;2022-10-16T02:24:36;14.43;;;12.37;;
23129;SDS011;11734;51.046;13.778;2022-10-16T02:27:20;15.90;;;12.87;;
23129;SDS011;11734;51.046;13.778;2022-10-16T02:30:11;15.17;;;12.33;;
23129;SDS011;11734;51.046;13.778;2022-10-16T02:33:07;14.83;;;12.07;;
23129;SDS011;11734;51.046;13.778;2022-10-16T02:35:40;14.90;;;13.23;;
23129;SDS011;11734;51.046;13.778;2022-10-16T02:38:09;14.03;;;11.40;;
23129;SDS011;11734;51.046;13.778;2022-10-16T02:40:38;14.40;;;12.23;;
23129;SDS011;11734;51.046;13.778;2022-10-16T02:43:06;16.43;;;12.83;;
23129;SDS011;11734;51.046;13.778;2022-10-16T02:45:35;13.90;;;11.60;;
23129;SDS011;11734;51.046;13.778;2022-10-16T02:48:02;14.70;;;12.50;;
23129;SDS011;11734;51.046;13.778;2022-10-16T02:50:30;15.87;;;11.83;;
23129;SDS011;11734;51.046;13.778;2022-10-16T02:52:57;12.40;;;10.83;;
23129;SDS011;11734;51.046;13.778;2022-10-16T02:55:24;13.20;;;11.37;;
23129;SDS011;11734;51.046;13.778;2022-10-16T02:57:51;14.33;;;12.40;;
23129;SDS011;11734;51.046;13.778;2022-10-16T03:00:18;14.10;;;12.23;;
23129;SDS011;11734;51.046;13.778;2022-10-16T03:02:46;13.93;;;11.80;;
23129;SDS011;11734;51.046;13.778;2022-10-16T03:05:13;15.40;;;11.97;;
23129;SDS011;11734;51.046;13.778;2022-10-16T03:07:40;13.47;;;11.37;;
23129;SDS011;11734;51.046;13.778;2022-10-16T03:10:07;12.93;;;11.53;;
23129;SDS011;11734;51.046;13.778;2022-10-16T03:12:34;13.50;;;11.70;;
23129;SDS011;11734;51.046;13.778;2022-10-16T03:15:02;14.43;;;11.60;;
23129;SDS011;11734;51.046;13.778;2022-10-16T03:17:31;13.27;;;11.63;;
23129;SDS011;11734;51.046;13.778;2022-10-16T03:19:59;13.83;;;11.10;;
23129;SDS011;11734;51.046;13.778;2022-10-16T03:22:26;12.73;;;10.70;;
23129;SDS011;11734;51.046;13.778;2022-10-16T03:24:53;12.47;;;10.80;;
23129;SDS011;11734;51.046;13.778;2022-10-16T03:27:20;13.53;;;11.57;;
23129;SDS011;11734;51.046;13.778;2022-10-16T03:29:48;12.83;;;11.30;;
23129;SDS011;11734;51.046;13.778;2022-10-16T03:32:15;13.77;;;11.33;;
23129;SDS011;11734;51.046;13.778;2022-10-16T03:34:42;12.30;;;10.90;;
23129;SDS011;11734;51.046;13.778;2022-10-16T03:37:09;12.90;;;10.90;;
23129;SDS011;11734;51.046;13.778;2022-10-16T03:39:36;12.63;;;11.13;;
23129;SDS011;11734;51.046;13.778;2022-10-16T03:42:03;12.53;;;10.50;;
23129;SDS011;11734;51.046;13.778;2022-10-16T03:44:30;11.83;;;10.57;;
23129;SDS011;11734;51.046;13.778;2022-10-16T03:46:58;12.80;;;11.03;;
23129;SDS011;11734;51.046;13.778;2022-10-16T03:49:24;13.27;;;11.17;;
23129;SDS011;11734;51.046;13.778;2022-10-16T03:51:51;14.90;;;11.40;;
23129;SDS011;11734;51.046;13.778;2022-10-16T03:54:18;12.77;;;11.07;;
23129;SDS011;11734;51.046;13.778;2022-10-16T03:56:45;12.67;;;10.83;;
23129;SDS011;11734;51.046;13.778;2022-10-16T03:59:12;13.00;;;11.27;;
23129;SDS011;11734;51.046;13.778;2022-10-16T04:01:39;11.90;;;10.77;;
23129;SDS011;11734;51.046;13.778;2022-10-16T04:04:06;14.13;;;11.83;;
23129;SDS011;11734;51.046;13.778;2022-10-16T04:06:33;12.13;;;10.83;;
23129;SDS011;11734;51.046;13.778;2022-10-16T04:09:00;12.20;;;10.90;;
23129;SDS011;11734;51.046;13.778;2022-10-16T04:11:27;13.17;;;11.77;;
23129;SDS011;11734;51.046;13.778;2022-10-16T04:13:54;12.57;;;11.23;;
23129;SDS011;11734;51.046;13.778;2022-10-16T04:16:21;12.90;;;11.30;;
23129;SDS011;11734;51.046;13.778;2022-10-16T04:18:48;14.20;;;11.60;;
23129;SDS011;11734;51.046;13.778;2022-10-16T04:21:15;13.80;;;11.97;;
23129;SDS011;11734;51.046;13.778;2022-10-16T04:23:42;12.20;;;10.87;;
23129;SDS011;11734;51.046;13.778;2022-10-16T04:26:10;12.50;;;10.77;;
23129;SDS011;11734;51.046;13.778;2022-10-16T04:28:38;13.20;;;11.70;;
23129;SDS011;11734;51.046;13.778;2022-10-16T04:31:06;12.97;;;11.10;;
23129;SDS011;11734;51.046;13.778;2022-10-16T04:33:33;14.40;;;12.63;;
23129;SDS011;11734;51.046;13.778;2022-10-16T04:36:01;13.60;;;12.20;;
23129;SDS011;11734;51.046;13.778;2022-10-16T04:38:29;13.33;;;11.93;;
23129;SDS011;11734;51.046;13.778;2022-10-16T04:40:57;13.33;;;11.73;;
23129;SDS011;11734;51.046;13.778;2022-10-16T04:43:24;14.37;;;12.37;;
23129;SDS011;11734;51.046;13.778;2022-10-16T04:45:51;15.37;;;12.50;;
23129;SDS011;11734;51.046;13.778;2022-10-16T04:48:18;13.73;;;12.23;;
23129;SDS011;11734;51.046;13.778;2022-10-16T04:50:45;13.30;;;11.40;;
23129;SDS011;11734;51.046;13.778;2022-10-16T04:53:20;12.77;;;11.33;;
23129;SDS011;11734;51.046;13.778;2022-10-16T04:55:47;13.30;;;11.83;;
23129;SDS011;11734;51.046;13.778;2022-10-16T04:58:14;13.23;;;11.27;;
23129;SDS011;11734;51.046;13.778;2022-10-16T05:00:41;14.53;;;12.80;;
23129;SDS011;11734;51.046;13.778;2022-10-16T05:03:08;13.67;;;11.13;;
23129;SDS011;11734;51.046;13.778;2022-10-16T05:05:36;14.17;;;11.97;;
23129;SDS011;11734;51.046;13.778;2022-10-16T05:08:03;13.17;;;11.50;;
23129;SDS011;11734;51.046;13.778;2022-10-16T05:10:30;13.37;;;11.60;;
23129;SDS011;11734;51.046;13.778;2022-10-16T05:12:57;14.60;;;12.27;;
23129;SDS011;11734;51.046;13.778;2022-10-16T05:15:24;14.67;;;12.33;;
23129;SDS011;11734;51.046;13.778;2022-10-16T05:17:54;13.03;;;11.17;;
23129;SDS011;11734;51.046;13.778;2022-10-16T05:20:22;13.20;;;11.40;;
23129;SDS011;11734;51.046;13.778;2022-10-16T05:22:49;12.23;;;10.97;;
23129;SDS011;11734;51.046;13.778;2022-10-16T05:25:17;13.77;;;11.30;;
23129;SDS011;11734;51.046;13.778;2022-10-16T05:27:48;14.47;;;11.73;;
23129;SDS011;11734;51.046;13.778;2022-10-16T05:30:16;13.60;;;11.63;;
23129;SDS011;11734;51.046;13.778;2022-10-16T05:32:50;11.63;;;10.43;;
23129;SDS011;11734;51.046;13.778;2022-10-16T05:35:17;12.13;;;10.83;;
23129;SDS011;11734;51.046;13.778;2022-10-16T05:37:46;11.80;;;10.60;;
23129;SDS011;11734;51.046;13.778;2022-10-16T05:40:14;11.93;;;10.63;;
23129;SDS011;11734;51.046;13.778;2022-10-16T05:42:42;12.23;;;10.93;;
23129;SDS011;11734;51.046;13.778;2022-10-16T05:45:09;14.17;;;10.00;;
23129;SDS011;11734;51.046;13.778;2022-10-16T05:47:38;12.53;;;10.40;;
23129;SDS011;11734;51.046;13.778;2022-10-16T05:50:05;12.20;;;10.53;;
23129;SDS011;11734;51.046;13.778;2022-10-16T05:52:33;12.87;;;11.50;;
23129;SDS011;11734;51.046;13.778;2022-10-16T05:55:00;12.27;;;10.87;;
23129;SDS011;11734;51.046;13.778;2022-10-16T05:57:28;12.70;;;10.67;;
23129;SDS011;11734;51.046;13.778;2022-10-16T05:59:55;12.20;;;10.90;;
23129;SDS011;11734;51.046;13.778;2022-10-16T06:02:22;13.20;;;11.10;;
23129;SDS011;11734;51.046;13.778;2022-10-16T06:04:51;12.37;;;11.07;;
23129;SDS011;11734;51.046;13.778;2022-10-16T06:07:20;12.83;;;10.50;;
23129;SDS011;11734;51.046;13.778;2022-10-16T06:09:49;26.37;;;20.23;;
23129;SDS011;11734;51.046;13.778;2022-10-16T06:12:20;12.27;;;10.93;;
23129;SDS011;11734;51.046;13.778;2022-10-16T06:14:47;13.20;;;11.87;;
23129;SDS011;11734;51.046;13.778;2022-10-16T06:17:14;12.50;;;10.83;;
23129;SDS011;11734;51.046;13.778;2022-10-16T06:19:42;13.27;;;10.73;;
23129;SDS011;11734;51.046;13.778;2022-10-16T06:22:09;12.40;;;11.10;;
23129;SDS011;11734;51.046;13.778;2022-10-16T06:24:36;12.50;;;11.20;;
23129;SDS011;11734;51.046;13.778;2022-10-16T06:27:03;14.37;;;11.07;;
23129;SDS011;11734;51.046;13.778;2022-10-16T06:29:31;13.13;;;10.83;;
23129;SDS011;11734;51.046;13.778;2022-10-16T06:31:58;12.93;;;11.53;;
23129;SDS011;11734;51.046;13.778;2022-10-16T06:34:25;12.70;;;11.23;;
23129;SDS011;11734;51.046;13.778;2022-10-16T06:36:52;12.53;;;11.23;;
23129;SDS011;11734;51.046;13.778;2022-10-16T06:39:19;12.83;;;11.43;;
23129;SDS011;11734;51.046;13.778;2022-10-16T06:41:46;12.60;;;11.20;;
23129;SDS011;11734;51.046;13.778;2022-10-16T06:44:14;12.30;;;11.00;;
23129;SDS011;11734;51.046;13.778;2022-10-16T06:46:41;13.40;;;12.00;;
23129;SDS011;11734;51.046;13.778;2022-10-16T06:49:08;13.80;;;12.37;;
23129;SDS011;11734;51.046;13.778;2022-10-16T06:51:35;14.60;;;12.03;;
23129;SDS011;11734;51.046;13.778;2022-10-16T06:54:08;14.10;;;12.63;;
23129;SDS011;11734;51.046;13.778;2022-10-16T06:56:36;16.00;;;13.73;;
23129;SDS011;11734;51.046;13.778;2022-10-16T06:59:03;21.37;;;16.20;;
23129;SDS011;11734;51.046;13.778;2022-10-16T07:01:30;14.63;;;12.73;;
23129;SDS011;11734;51.046;13.778;2022-10-16T07:03:59;14.60;;;11.97;;
23129;SDS011;11734;51.046;13.778;2022-10-16T07:06:30;14.00;;;12.53;;
23129;SDS011;11734;51.046;13.778;2022-10-16T07:09:03;14.27;;;12.77;;
23129;SDS011;11734;51.046;13.778;2022-10-16T07:11:33;12.90;;;11.60;;
23129;SDS011;11734;51.046;13.778;2022-10-16T07:14:00;13.37;;;11.97;;
23129;SDS011;11734;51.046;13.778;2022-10-16T07:16:28;13.60;;;12.13;;
23129;SDS011;11734;51.046;13.778;2022-10-16T07:18:59;14.47;;;12.20;;
23129;SDS011;11734;51.046;13.778;2022-10-16T07:21:29;13.57;;;11.43;;
23129;SDS011;11734;51.046;13.778;2022-10-16T07:24:03;13.90;;;12.47;;
23129;SDS011;11734;51.046;13.778;2022-10-16T07:26:35;13.37;;;11.97;;
23129;SDS011;11734;51.046;13.778;2022-10-16T07:29:06;13.97;;;12.57;;
23129;SDS011;11734;51.046;13.778;2022-10-16T07:31:39;13.63;;;12.23;;
23129;SDS011;11734;51.046;13.778;2022-10-16T07:34:08;13.67;;;12.17;;
23129;SDS011;11734;51.046;13.778;2022-10-16T07:36:37;13.20;;;11.47;;
23129;SDS011;11734;51.046;13.778;2022-10-16T07:39:04;13.40;;;12.00;;
23129;SDS011;11734;51.046;13.778;2022-10-16T07:41:31;13.00;;;11.70;;
23129;SDS011;11734;51.046;13.778;2022-10-16T07:43:59;13.03;;;11.63;;
23129;SDS011;11734;51.046;13.778;2022-10-16T07:46:26;14.50;;;11.30;;
23129;SDS011;11734;51.046;13.778;2022-10-16T07:48:54;13.20;;;11.80;;
23129;SDS011;11734;51.046;13.778;2022-10-16T07:51:22;12.17;;;10.93;;
23129;SDS011;11734;51.046;13.778;2022-10-16T07:53:51;13.47;;;11.73;;
23129;SDS011;11734;51.046;13.778;2022-10-16T07:56:19;12.73;;;11.30;;
23129;SDS011;11734;51.046;13.778;2022-10-16T07:58:47;12.80;;;11.30;;
23129;SDS011;11734;51.046;13.778;2022-10-16T08:01:16;12.53;;;11.33;;
23129;SDS011;11734;51.046;13.778;2022-10-16T08:03:45;12.07;;;10.83;;
23129;SDS011;11734;51.046;13.778;2022-10-16T08:06:16;12.03;;;10.83;;
23129;SDS011;11734;51.046;13.778;2022-10-16T08:08:50;12.80;;;11.53;;
23129;SDS011;11734;51.046;13.778;2022-10-16T08:11:17;11.90;;;10.70;;
23129;SDS011;11734;51.046;13.778;2022-10-16T08:13:45;11.93;;;10.53;;
23129;SDS011;11734;51.046;13.778;2022-10-16T08:16:12;11.33;;;10.13;;
23129;SDS011;11734;51.046;13.778;2022-10-16T08:18:39;10.60;;;9.57;;
23129;SDS011;11734;51.046;13.778;2022-10-16T08:21:08;11.30;;;10.10;;
23129;SDS011;11734;51.046;13.778;2022-10-16T08:23:46;11.53;;;10.33;;
23129;SDS011;11734;51.046;13.778;2022-10-16T08:26:22;10.97;;;9.80;;
23129;SDS011;11734;51.046;13.778;2022-10-16T08:28:49;10.77;;;9.77;;
23129;SDS011;11734;51.046;13.778;2022-10-16T08:31:18;10.20;;;9.20;;
23129;SDS011;11734;51.046;13.778;2022-10-16T08:33:45;10.93;;;9.80;;
23129;SDS011;11734;51.046;13.778;2022-10-16T08:36:14;10.10;;;9.20;;
23129;SDS011;11734;51.046;13.778;2022-10-16T08:38:42;10.03;;;9.03;;
23129;SDS011;11734;51.046;13.778;2022-10-16T08:49:16;8.53;;;7.73;;
23129;SDS011;11734;51.046;13.778;2022-10-16T08:51:44;7.70;;;7.03;;
23129;SDS011;11734;51.046;13.778;2022-10-16T08:54:29;8.33;;;7.37;;
23129;SDS011;11734;51.046;13.778;2022-10-16T08:57:28;7.43;;;6.77;;
23129;SDS011;11734;51.046;13.778;2022-10-16T08:59:59;6.97;;;6.40;;
23129;SDS011;11734;51.046;13.778;2022-10-16T09:02:59;7.70;;;6.70;;
23129;SDS011;11734;51.046;13.778;2022-10-16T09:08:41;13.63;;;12.10;;
23129;SDS011;11734;51.046;13.778;2022-10-16T09:23:43;7.27;;;6.67;;
23129;SDS011;11734;51.046;13.778;2022-10-16T09:25:56;8.93;;;8.13;;
23129;SDS011;11734;51.046;13.778;2022-10-16T09:28:25;8.10;;;7.40;;
23129;SDS011;11734;51.046;13.778;2022-10-16T09:30:53;7.63;;;6.93;;
23129;SDS011;11734;51.046;13.778;2022-10-16T09:33:22;7.83;;;7.13;;
23129;SDS011;11734;51.046;13.778;2022-10-16T09:35:55;7.53;;;6.83;;
23129;SDS011;11734;51.046;13.778;2022-10-16T09:38:26;6.70;;;6.10;;
23129;SDS011;11734;51.046;13.778;2022-10-16T09:40:59;7.00;;;6.30;;
23129;SDS011;11734;51.046;13.778;2022-10-16T09:44:17;7.07;;;6.47;;
23129;SDS011;11734;51.046;13.778;2022-10-16T09:47:00;6.10;;;5.50;;
23129;SDS011;11734;51.046;13.778;2022-10-16T09:49:32;6.13;;;5.63;;
23129;SDS011;11734;51.046;13.778;2022-10-16T09:52:13;6.77;;;5.80;;
23129;SDS011;11734;51.046;13.778;2022-10-16T09:54:54;7.20;;;6.50;;
23129;SDS011;11734;51.046;13.778;2022-10-16T09:57:24;5.53;;;5.03;;
23129;SDS011;11734;51.046;13.778;2022-10-16T09:59:56;6.30;;;5.70;;
23129;SDS011;11734;51.046;13.778;2022-10-16T10:02:33;6.30;;;5.70;;
23129;SDS011;11734;51.046;13.778;2022-10-16T10:05:04;6.20;;;5.70;;
23129;SDS011;11734;51.046;13.778;2022-10-16T10:07:43;5.30;;;4.87;;
23129;SDS011;11734;51.046;13.778;2022-10-16T10:10:22;5.60;;;5.10;;
23129;SDS011;11734;51.046;13.778;2022-10-16T10:12:54;3.70;;;3.40;;
23129;SDS011;11734;51.046;13.778;2022-10-16T10:15:22;3.53;;;3.23;;
23129;SDS011;11734;51.046;13.778;2022-10-16T10:17:54;3.57;;;3.27;;
23129;SDS011;11734;51.046;13.778;2022-10-16T10:20:28;3.37;;;3.10;;
23129;SDS011;11734;51.046;13.778;2022-10-16T10:23:23;3.70;;;3.40;;
23129;SDS011;11734;51.046;13.778;2022-10-16T10:28:32;4.10;;;3.70;;
23129;SDS011;11734;51.046;13.778;2022-10-16T10:31:24;3.80;;;3.50;;
23129;SDS011;11734;51.046;13.778;2022-10-16T10:37:24;3.17;;;2.93;;
23129;SDS011;11734;51.046;13.778;2022-10-16T10:49:45;2.30;;;2.10;;
23129;SDS011;11734;51.046;13.778;2022-10-16T11:01:06;2.03;;;1.80;;
23129;SDS011;11734;51.046;13.778;2022-10-16T11:09:15;1.23;;;1.13;;
23129;SDS011;11734;51.046;13.778;2022-10-16T11:12:02;1.30;;;1.20;;
23129;SDS011;11734;51.046;13.778;2022-10-16T11:14:40;1.20;;;1.10;;
23129;SDS011;11734;51.046;13.778;2022-10-16T11:17:31;1.00;;;0.70;;
23129;SDS011;11734;51.046;13.778;2022-10-16T11:25:42;0.57;;;0.57;;
23129;SDS011;11734;51.046;13.778;2022-10-16T11:28:14;0.77;;;0.77;;
23129;SDS011;11734;51.046;13.778;2022-10-16T11:33:37;0.73;;;0.73;;
23129;SDS011;11734;51.046;13.778;2022-10-16T11:38:51;0.70;;;0.70;;
23129;SDS011;11734;51.046;13.778;2022-10-16T11:50:26;1.00;;;1.00;;
23129;SDS011;11734;51.046;13.778;2022-10-16T11:55:42;0.70;;;0.70;;
23129;SDS011;11734;51.046;13.778;2022-10-16T11:58:29;0.80;;;0.80;;
23129;SDS011;11734;51.046;13.778;2022-10-16T12:03:52;0.97;;;0.90;;
23129;SDS011;11734;51.046;13.778;2022-10-16T12:09:02;0.70;;;0.70;;
23129;SDS011;11734;51.046;13.778;2022-10-16T12:11:31;0.80;;;0.80;;
23129;SDS011;11734;51.046;13.778;2022-10-16T12:14:59;0.80;;;0.80;;
23129;SDS011;11734;51.046;13.778;2022-10-16T12:17:23;0.80;;;0.80;;
23129;SDS011;11734;51.046;13.778;2022-10-16T12:22:47;0.60;;;0.60;;
23129;SDS011;11734;51.046;13.778;2022-10-16T12:28:02;0.60;;;0.60;;
23129;SDS011;11734;51.046;13.778;2022-10-16T12:30:39;0.80;;;0.80;;
23129;SDS011;11734;51.046;13.778;2022-10-16T12:33:19;0.80;;;0.80;;
23129;SDS011;11734;51.046;13.778;2022-10-16T12:35:54;0.70;;;0.70;;
23129;SDS011;11734;51.046;13.778;2022-10-16T12:38:25;0.70;;;0.70;;
23129;SDS011;11734;51.046;13.778;2022-10-16T12:41:05;0.70;;;0.70;;
23129;SDS011;11734;51.046;13.778;2022-10-16T12:43:39;1.40;;;0.93;;
23129;SDS011;11734;51.046;13.778;2022-10-16T12:48:40;0.90;;;0.80;;
23129;SDS011;11734;51.046;13.778;2022-10-16T13:08:59;1.00;;;0.90;;
23129;SDS011;11734;51.046;13.778;2022-10-16T13:12:15;0.80;;;0.80;;
23129;SDS011;11734;51.046;13.778;2022-10-16T13:23:30;0.80;;;0.80;;
23129;SDS011;11734;51.046;13.778;2022-10-16T13:29:03;0.90;;;0.87;;
23129;SDS011;11734;51.046;13.778;2022-10-16T13:31:31;0.77;;;0.77;;
23129;SDS011;11734;51.046;13.778;2022-10-16T13:34:00;0.80;;;0.80;;
23129;SDS011;11734;51.046;13.778;2022-10-16T13:36:29;1.47;;;0.90;;
23129;SDS011;11734;51.046;13.778;2022-10-16T13:39:21;0.90;;;0.90;;
23129;SDS011;11734;51.046;13.778;2022-10-16T13:42:01;0.90;;;0.90;;
23129;SDS011;11734;51.046;13.778;2022-10-16T13:44:43;1.00;;;1.00;;
23129;SDS011;11734;51.046;13.778;2022-10-16T13:47:25;1.00;;;0.90;;
23129;SDS011;11734;51.046;13.778;2022-10-16T13:50:09;1.40;;;1.30;;
23129;SDS011;11734;51.046;13.778;2022-10-16T13:52:41;10.33;;;9.03;;
23129;SDS011;11734;51.046;13.778;2022-10-16T13:55:12;3.90;;;3.00;;
23129;SDS011;11734;51.046;13.778;2022-10-16T13:57:42;1.40;;;1.30;;
23129;SDS011;11734;51.046;13.778;2022-10-16T14:00:20;1.40;;;1.20;;
23129;SDS011;11734;51.046;13.778;2022-10-16T14:02:55;1.33;;;1.23;;
23129;SDS011;11734;51.046;13.778;2022-10-16T14:05:29;1.40;;;1.30;;
23129;SDS011;11734;51.046;13.778;2022-10-16T14:07:57;1.27;;;1.17;;
23129;SDS011;11734;51.046;13.778;2022-10-16T14:10:30;1.50;;;1.10;;
23129;SDS011;11734;51.046;13.778;2022-10-16T14:13:00;1.30;;;1.20;;
23129;SDS011;11734;51.046;13.778;2022-10-16T14:15:33;1.57;;;1.40;;
23129;SDS011;11734;51.046;13.778;2022-10-16T14:18:03;1.33;;;1.23;;
23129;SDS011;11734;51.046;13.778;2022-10-16T14:20:31;1.50;;;1.20;;
23129;SDS011;11734;51.046;13.778;2022-10-16T14:23:16;1.87;;;1.30;;
23129;SDS011;11734;51.046;13.778;2022-10-16T14:28:36;1.17;;;1.10;;
23129;SDS011;11734;51.046;13.778;2022-10-16T14:33:46;1.70;;;1.60;;
23129;SDS011;11734;51.046;13.778;2022-10-16T14:36:13;1.60;;;1.50;;
23129;SDS011;11734;51.046;13.778;2022-10-16T14:41:27;2.40;;;2.10;;
23129;SDS011;11734;51.046;13.778;2022-10-16T14:44:01;2.30;;;2.10;;
23129;SDS011;11734;51.046;13.778;2022-10-16T14:46:36;2.43;;;1.70;;
23129;SDS011;11734;51.046;13.778;2022-10-16T14:51:39;3.10;;;1.80;;
23129;SDS011;11734;51.046;13.778;2022-10-16T14:54:12;2.17;;;1.97;;
23129;SDS011;11734;51.046;13.778;2022-10-16T14:59:19;3.43;;;3.13;;
23129;SDS011;11734;51.046;13.778;2022-10-16T15:01:58;3.20;;;2.77;;
23129;SDS011;11734;51.046;13.778;2022-10-16T15:04:26;2.63;;;2.17;;
23129;SDS011;11734;51.046;13.778;2022-10-16T15:06:53;2.53;;;2.33;;
23129;SDS011;11734;51.046;13.778;2022-10-16T15:09:20;3.13;;;2.57;;
23129;SDS011;11734;51.046;13.778;2022-10-16T15:11:47;3.10;;;2.80;;
23129;SDS011;11734;51.046;13.778;2022-10-16T15:14:14;3.27;;;2.60;;
23129;SDS011;11734;51.046;13.778;2022-10-16T15:16:45;3.10;;;2.50;;
23129;SDS011;11734;51.046;13.778;2022-10-16T15:19:12;2.40;;;2.20;;
23129;SDS011;11734;51.046;13.778;2022-10-16T15:21:39;3.00;;;2.33;;
23129;SDS011;11734;51.046;13.778;2022-10-16T15:24:11;2.10;;;1.90;;
23129;SDS011;11734;51.046;13.778;2022-10-16T15:26:44;2.10;;;1.90;;
23129;SDS011;11734;51.046;13.778;2022-10-16T15:29:15;1.97;;;1.83;;
23129;SDS011;11734;51.046;13.778;2022-10-16T15:31:42;2.33;;;2.10;;
23129;SDS011;11734;51.046;13.778;2022-10-16T15:34:09;2.60;;;2.40;;
23129;SDS011;11734;51.046;13.778;2022-10-16T15:36:37;2.70;;;2.50;;
23129;SDS011;11734;51.046;13.778;2022-10-16T15:39:10;3.83;;;2.90;;
23129;SDS011;11734;51.046;13.778;2022-10-16T15:41:41;3.03;;;2.27;;
23129;SDS011;11734;51.046;13.778;2022-10-16T15:44:09;5.50;;;3.70;;
23129;SDS011;11734;51.046;13.778;2022-10-16T15:46:36;3.23;;;2.80;;
23129;SDS011;11734;51.046;13.778;2022-10-16T15:49:03;2.83;;;2.33;;
23129;SDS011;11734;51.046;13.778;2022-10-16T15:51:30;3.93;;;2.47;;
23129;SDS011;11734;51.046;13.778;2022-10-16T15:54:00;3.10;;;2.30;;
23129;SDS011;11734;51.046;13.778;2022-10-16T15:56:28;2.73;;;2.53;;
23129;SDS011;11734;51.046;13.778;2022-10-16T15:58:55;2.77;;;2.30;;
23129;SDS011;11734;51.046;13.778;2022-10-16T16:01:24;2.50;;;2.30;;
23129;SDS011;11734;51.046;13.778;2022-10-16T16:03:52;3.30;;;2.60;;
23129;SDS011;11734;51.046;13.778;2022-10-16T16:06:21;2.77;;;2.43;;
23129;SDS011;11734;51.046;13.778;2022-10-16T16:08:52;2.30;;;2.10;;
23129;SDS011;11734;51.046;13.778;2022-10-16T16:11:20;3.53;;;2.83;;
23129;SDS011;11734;51.046;13.778;2022-10-16T16:13:49;2.90;;;2.63;;
23129;SDS011;11734;51.046;13.778;2022-10-16T16:16:16;3.17;;;2.80;;
23129;SDS011;11734;51.046;13.778;2022-10-16T16:18:46;3.50;;;3.20;;
23129;SDS011;11734;51.046;13.778;2022-10-16T16:21:15;4.37;;;3.00;;
23129;SDS011;11734;51.046;13.778;2022-10-16T16:23:42;3.23;;;3.00;;
23129;SDS011;11734;51.046;13.778;2022-10-16T16:28:42;2.83;;;2.63;;
23129;SDS011;11734;51.046;13.778;2022-10-16T16:31:09;2.67;;;2.47;;
23129;SDS011;11734;51.046;13.778;2022-10-16T16:33:36;4.70;;;4.30;;
23129;SDS011;11734;51.046;13.778;2022-10-16T16:36:04;6.23;;;5.63;;
23129;SDS011;11734;51.046;13.778;2022-10-16T16:38:38;7.73;;;6.33;;
23129;SDS011;11734;51.046;13.778;2022-10-16T16:41:15;6.43;;;5.73;;
23129;SDS011;11734;51.046;13.778;2022-10-16T16:43:45;6.67;;;5.50;;
23129;SDS011;11734;51.046;13.778;2022-10-16T16:46:14;7.17;;;5.63;;
23129;SDS011;11734;51.046;13.778;2022-10-16T16:48:41;7.27;;;6.17;;
23129;SDS011;11734;51.046;13.778;2022-10-16T16:51:09;6.60;;;5.70;;
23129;SDS011;11734;51.046;13.778;2022-10-16T16:53:42;7.77;;;6.23;;
23129;SDS011;11734;51.046;13.778;2022-10-16T16:56:12;5.50;;;5.00;;
23129;SDS011;11734;51.046;13.778;2022-10-16T16:58:40;7.33;;;5.87;;
23129;SDS011;11734;51.046;13.778;2022-10-16T17:01:09;6.83;;;6.13;;
23129;SDS011;11734;51.046;13.778;2022-10-16T17:03:46;6.63;;;5.83;;
23129;SDS011;11734;51.046;13.778;2022-10-16T17:06:22;5.90;;;5.30;;
23129;SDS011;11734;51.046;13.778;2022-10-16T17:08:57;6.10;;;5.50;;
23129;SDS011;11734;51.046;13.778;2022-10-16T17:11:28;6.17;;;4.77;;